• Join FlightAware (Why Join?)
  • Login
  • US Flag 
05:35PM EDT


 

Airport Tracker/Info


-or-


 

Live Flight TrackerFlight Track Log ✈ CHQ6134 ✈ 28-Jun-2013 ✈ KCVG - KPHL

Flight Track Log - Related Links

Times and Time Zones

All times are in EDT time to prevent confusion due to time zone crossing. See the CHQ6134 flight status page for this flight to view local times or setup timezone preferences in your user account.

Time Position Orientation Groundspeed Altitude Reporting Facility
EDT Latitude Longitude Course Direction KTS MPH feet Rate Location/Type
09:58PM 39.0500 -84.6833 47° Northeast 162 186 1,300  Level Cincinnati TRACON
09:59PM 39.0833 -84.7167 322° Northwest 197 227 3,700 1,860 Climbing Cincinnati TRACON
10:01PM 39.0026 -84.2601 63° Northeast  Level FlightAware Approximate
10:02PM 39.0780 -84.1276 44° Northeast  Level FlightAware Approximate
10:02PM 39.1253 -84.5411 73° East 253 291 8,100  Level Indianapolis Center
10:03PM 39.1580 -84.0022 47° Northeast  Level FlightAware Approximate
10:03PM 39.1358 -84.4478 82° East 261 300 10,300  Level Indianapolis Center
10:04PM 39.1481 -84.3497 81° East 270 311 12,200 1,740 Climbing Indianapolis Center
10:05PM 39.1603 -84.2467 81° East 285 328 13,900 1,560 Climbing Indianapolis Center
10:06PM 39.1725 -84.1381 82° East 300 345 15,400 1,500 Climbing Indianapolis Center
10:07PM 39.1850 -84.0236 82° East 315 362 17,000 1,800 Climbing Indianapolis Center
10:08PM 39.2203 -83.8950 70° East 326 375 19,100 1,800 Climbing Indianapolis Center
10:09PM 39.2606 -83.7875 64° Northeast 332 382 20,700 1,500 Climbing Indianapolis Center
10:10PM 39.3022 -83.6786 64° Northeast 335 386 22,200 1,140 Climbing Indianapolis Center
10:11PM 39.3439 -83.5669 64° Northeast 343 395 23,100 1,080 Climbing Indianapolis Center
10:12PM 39.3861 -83.4567 64° Northeast 342 394 24,500 1,380 Climbing Indianapolis Center
10:13PM 39.4278 -83.3450 64° Northeast 344 396 26,000 1,440 Climbing Indianapolis Center
10:14PM 39.4694 -83.2333 64° Northeast 344 396 27,500 1,200 Climbing Indianapolis Center
10:15PM 39.5108 -83.1233 64° Northeast 340 391 28,500 720 Climbing Indianapolis Center
10:16PM 39.5550 -83.0061 64° Northeast 356 410 29,000 240 Climbing Indianapolis Center
10:17PM 39.6028 -82.8772 64° Northeast 387 445 29,000  Level Indianapolis Center
10:18PM 39.6186 -82.7250 82° East 419 482 29,000  Level Indianapolis Center
10:19PM 39.6331 -82.5503 84° East 417 480 29,000  Level Indianapolis Center
10:20PM 39.6439 -82.3992 85° East 418 481 29,000  Level Indianapolis Center
10:21PM 39.6558 -82.2494 84° East 415 478 29,000  Level Indianapolis Center
10:22PM 39.6661 -82.1078 85° East 416 479 29,000  Level Indianapolis Center
10:23PM 39.6775 -81.9575 84° East 416 479 29,000  Level Indianapolis Center
10:24PM 39.6881 -81.8083 85° East 414 476 29,000  Level Indianapolis Center
10:25PM 39.6994 -81.6547 84° East 423 487 29,000  Level Indianapolis Center
10:26PM 39.7103 -81.4881 85° East 430 495 29,000  Level Indianapolis Center
10:27PM 39.7289 -81.3447 80° East 433 498 29,000  Level Indianapolis Center
10:28PM 39.7592 -81.1903 76° East 439 505 29,000  Level Indianapolis Center
10:29PM 39.7961 -81.0025 76° East 444 511 29,000  Level Indianapolis Center
10:30PM 39.8261 -80.8467 76° East 444 511 29,000  Level Indianapolis Center
10:31PM 39.8558 -80.6908 76° East 444 511 29,000  Level Indianapolis Center
10:32PM 39.8850 -80.5353 76° East 442 509 29,000  Level Indianapolis Center
10:33PM 39.9153 -80.3811 76° East 438 504 29,000  Level Indianapolis Center
10:34PM 39.9583 -80.2311 69° East 430 495 29,000  Level Cleveland Center
10:35PM 39.9994 -80.0817 70° East 435 501 29,000  Level Cleveland Center
10:36PM 40.0361 -79.9322 72° East 435 501 29,000  Level Cleveland Center
10:37PM 40.0747 -79.7828 71° East 435 501 29,000 -240 Level Cleveland Center
10:38PM 40.1111 -79.6331 72° East 435 501 28,600 -720 Descending Cleveland Center
10:39PM 40.1283 -79.4697 82° East 435 501 27,600 -1,080 Descending Cleveland Center
10:40PM 40.1517 -79.3119 79° East 440 506 26,500 -1,080 Descending Cleveland Center
10:41PM 40.1686 -79.1511 82° East 445 512 25,500 -780 Descending Cleveland Center
10:42PM 40.1875 -78.9933 81° East 445 512 25,000 -300 Descending Cleveland Center
10:43PM 40.2061 -78.8433 81° East 440 506 25,000  Level Cleveland Center
10:44PM 40.2283 -78.6767 80° East 423 487 25,000  Level Cleveland Center
10:45PM 40.2447 -78.5322 81° East 413 475 25,000  Level Cleveland Center
10:47PM 40.2783 -78.2589 81° East 402 463 25,000  Level New York Center
10:48PM 40.2961 -78.1083 81° East 407 468 25,000  Level New York Center
10:49PM 40.3114 -77.9603 82° East 412 474 25,000 -180 Level New York Center
10:50PM 40.3094 -77.8211 91° East 412 474 24,700 -660 Descending New York Center
10:51PM 40.2992 -77.6786 95° East 412 474 23,700 -900 Descending New York Center
10:52PM 40.2842 -77.5383 98° East 400 460 23,000 -360 Descending New York Center
10:53PM 40.2692 -77.4006 98° East 389 448 23,000  Level New York Center
10:54PM 40.2500 -77.2575 100° East 389 448 23,000 -120 Level New York Center
10:55PM 40.2369 -77.1119 97° East 396 456 22,800 -840 Descending New York Center
10:56PM 40.2214 -76.9747 98° East 391 450 21,400 -1,440 Descending New York Center
10:57PM 40.2056 -76.8400 99° East 380 437 20,000 -1,380 Descending New York Center
10:58PM 40.1919 -76.6947 97° East 369 425 18,600 -1,200 Descending New York Center
10:59PM 40.1775 -76.5658 98° East 357 411 17,600 -840 Descending New York Center
11:00PM 40.1642 -76.4533 99° East 351 404 17,000 -720 Descending New York Center
11:01PM 40.1511 -76.3353 98° East 338 389 16,300 -1,620 Descending New York Center
11:02PM 40.1364 -76.2067 98° East 333 383 13,800 -2,400 Descending New York Center
11:03PM 40.1231 -76.0833 98° East 338 389 11,600 -2,040 Descending New York Center
11:04PM 40.1097 -75.9656 98° East 333 383 9,800 -1,740 Descending New York Center
11:05PM 40.0936 -75.8531 101° East 324 373 8,200 -900 Descending New York Center
11:06PM 40.0831 -75.7575 98° East 300 345 8,100 -60 Descending New York Center
11:07PM 40.0753 -75.6456 95° East 285 328 8,100 -60 Level New York Center
11:08PM 40.0711 -75.5422 93° East 285 328 8,000 -720 Descending New York Center
11:09PM 40.0650 -75.4361 94° East 285 328 6,800 -1,260 Descending New York Center
11:10PM 40.0667 -75.3667 88° East 271 312 6,000 -540 Descending Philadelphia TRACON
11:11PM 40.0667 -75.2667 90° East 272 313 6,000  Level Philadelphia TRACON
11:12PM 40.0333 -75.2000 123° Southeast 237 273 6,000  Level Philadelphia TRACON
11:13PM 39.9833 -75.1333 134° Southeast 212 244 6,000 -60 Level Philadelphia TRACON
11:14PM 40.0000 -75.0500 75° East 233 268 5,900 -600 Descending Philadelphia TRACON
11:15PM 39.9667 -75.0167 143° Southeast 200 230 4,800 -1,500 Descending Philadelphia TRACON
11:16PM 39.9167 -75.0500 207° Southwest 202 232 3,100 -1,740 Descending Philadelphia TRACON